Time;durP1;ratioP1;P1;durP2;ratioP2;P2;SDS_P1;SDS_P2;PMS_P1;PMS_P2;Temp;Humidity;BMP_temperature;BMP_pressure;BME280_temperature;BME280_humidity;BME280_pressure;Samples;Min_cycle;Max_cycle;Signal;HPM_P1;HPM_P2
2024/01/29 00:00:32;;;;;;;369.35;225.60;;;;;;;-148.24;100.00;61531.34;4922536;29;20040;-60
2024/01/29 00:02:58;;;;;;;309.77;211.90;;;;;;;-148.24;100.00;61531.34;4924245;29;20399;-60
2024/01/29 00:05:23;;;;;;;346.05;201.48;;;;;;;-148.24;100.00;61531.34;4921696;28;20451;-60
2024/01/29 00:07:48;;;;;;;335.00;201.63;;;;;;;-148.24;100.00;61531.34;4924494;29;20035;-63
2024/01/29 00:10:14;;;;;;;402.00;201.20;;;;;;;-148.24;100.00;61531.34;4924629;29;20028;-62
2024/01/29 00:12:40;;;;;;;336.02;195.00;;;;;;;-148.24;100.00;61531.34;4920548;29;20042;-60
2024/01/29 00:15:06;;;;;;;404.45;196.40;;;;;;;-148.24;100.00;61531.34;4921015;28;20568;-60
2024/01/29 00:17:31;;;;;;;317.83;197.70;;;;;;;-148.24;100.00;61531.34;4922995;28;20051;-60
2024/01/29 00:19:56;;;;;;;357.23;199.07;;;;;;;-148.24;100.00;61531.34;4921161;29;22104;-61
2024/01/29 00:22:22;;;;;;;328.60;204.30;;;;;;;-148.24;100.00;61531.34;4921825;28;20076;-60
2024/01/29 00:24:47;;;;;;;340.42;209.20;;;;;;;-148.24;100.00;61531.34;4923307;28;20571;-61
2024/01/29 00:27:13;;;;;;;447.40;209.55;;;;;;;-148.24;100.00;61531.34;4920881;28;20468;-62
2024/01/29 00:29:38;;;;;;;356.98;202.50;;;;;;;-148.24;100.00;61531.34;4924754;29;20036;-60
2024/01/29 00:32:04;;;;;;;337.88;199.77;;;;;;;-148.24;100.00;61531.34;4927256;29;20031;-62
2024/01/29 00:34:29;;;;;;;359.73;209.23;;;;;;;-148.24;100.00;61531.34;4921851;29;20028;-63
2024/01/29 00:36:54;;;;;;;336.45;212.82;;;;;;;-148.24;100.00;61531.34;4922569;29;20080;-60
2024/01/29 00:39:20;;;;;;;319.45;216.43;;;;;;;-148.24;100.00;61531.34;4920793;29;20701;-60
2024/01/29 00:41:45;;;;;;;370.25;216.55;;;;;;;-148.24;100.00;61531.34;4921511;29;20174;-60
2024/01/29 00:44:10;;;;;;;437.80;220.80;;;;;;;-148.24;100.00;61531.34;4922689;29;20475;-60
2024/01/29 00:46:39;;;;;;;355.83;232.13;;;;;;;-148.24;100.00;61531.34;4922079;28;20056;-62
2024/01/29 00:49:04;;;;;;;406.98;199.57;;;;;;;-148.24;100.00;61531.34;4919861;29;20122;-60
2024/01/29 00:51:29;;;;;;;331.92;198.40;;;;;;;-148.24;100.00;61531.34;4917306;29;20138;-60
2024/01/29 00:53:55;;;;;;;333.90;216.43;;;;;;;-148.24;100.00;61531.34;4922086;29;20063;-60
2024/01/29 00:56:20;;;;;;;346.70;209.13;;;;;;;-148.24;100.00;61531.34;4920308;28;20081;-59
2024/01/29 00:58:46;;;;;;;352.33;209.77;;;;;;;-148.24;100.00;61531.34;4924001;29;20032;-59
2024/01/29 01:01:11;;;;;;;363.77;200.10;;;;;;;-148.24;100.00;61531.34;4920911;28;20515;-64
2024/01/29 01:03:36;;;;;;;396.08;208.45;;;;;;;-148.24;100.00;61531.34;4924374;29;20024;-62
2024/01/29 01:06:02;;;;;;;429.35;244.90;;;;;;;-148.24;100.00;61531.34;4918208;29;20060;-63
2024/01/29 01:08:27;;;;;;;405.38;239.85;;;;;;;-148.24;100.00;61531.34;4914281;29;20377;-61
2024/01/29 01:10:53;;;;;;;426.83;225.25;;;;;;;-148.24;100.00;61531.34;4918887;29;20038;-63
2024/01/29 01:13:18;;;;;;;500.83;229.65;;;;;;;-148.24;100.00;61531.34;4912208;29;20680;-61
2024/01/29 01:15:43;;;;;;;401.77;223.20;;;;;;;-148.24;100.00;61531.34;4918587;28;20149;-62
2024/01/29 01:18:09;;;;;;;519.33;235.20;;;;;;;-148.24;100.00;61531.34;4914648;29;20027;-63
2024/01/29 01:20:34;;;;;;;405.95;237.95;;;;;;;-148.24;100.00;61531.34;4918365;29;20044;-60
2024/01/29 01:23:01;;;;;;;362.98;232.38;;;;;;;-148.24;100.00;61531.34;4919183;29;20034;-61
2024/01/29 01:25:27;;;;;;;463.20;240.48;;;;;;;-148.24;100.00;61531.34;4912521;28;20055;-61
2024/01/29 01:27:53;;;;;;;389.55;237.93;;;;;;;-148.24;100.00;61531.34;4919482;29;20020;-63
2024/01/29 01:30:20;;;;;;;478.85;235.95;;;;;;;-148.24;100.00;61531.34;4917130;28;20039;-61
2024/01/29 01:32:46;;;;;;;475.98;235.48;;;;;;;-148.24;100.00;61531.34;4913255;29;20138;-63
2024/01/29 01:35:11;;;;;;;496.13;239.50;;;;;;;-148.24;100.00;61531.34;4913821;28;20028;-62
2024/01/29 01:37:37;;;;;;;420.02;234.15;;;;;;;-148.24;100.00;61531.34;4921629;29;20098;-62
2024/01/29 01:40:04;;;;;;;393.35;232.50;;;;;;;-148.24;100.00;61531.34;4916975;29;20248;-63
2024/01/29 01:42:29;;;;;;;395.38;236.35;;;;;;;-148.24;100.00;61531.34;4921791;29;20082;-61
2024/01/29 01:44:55;;;;;;;395.80;236.43;;;;;;;-148.24;100.00;61531.34;4915566;28;20494;-60
2024/01/29 01:47:20;;;;;;;553.88;247.50;;;;;;;-148.24;100.00;61531.34;4917010;28;20122;-60
2024/01/29 01:49:46;;;;;;;443.10;243.02;;;;;;;-148.24;100.00;61531.34;4917438;29;20550;-60
2024/01/29 01:52:12;;;;;;;447.08;241.77;;;;;;;-148.24;100.00;61531.34;4917249;28;20040;-61
2024/01/29 01:54:39;;;;;;;455.13;245.93;;;;;;;-148.24;100.00;61531.34;4918689;29;20035;-63
2024/01/29 01:57:06;;;;;;;360.75;225.73;;;;;;;-148.24;100.00;61531.34;4917354;29;20036;-61
2024/01/29 01:59:34;;;;;;;409.45;229.60;;;;;;;-148.24;100.00;61531.34;4917455;29;20154;-61
2024/01/29 02:02:00;;;;;;;402.33;229.07;;;;;;;-148.24;100.00;61531.34;4915460;29;20070;-61
2024/01/29 02:04:25;;;;;;;408.98;215.23;;;;;;;-148.24;100.00;61531.34;4913968;29;20119;-61
2024/01/29 02:06:51;;;;;;;391.17;215.75;;;;;;;-148.24;100.00;61531.34;4920675;28;20491;-61
2024/01/29 02:09:17;;;;;;;512.17;223.13;;;;;;;-148.24;100.00;61531.34;4915284;29;20440;-64
2024/01/29 02:11:43;;;;;;;393.48;219.07;;;;;;;-148.24;100.00;61531.34;4916241;28;20114;-64
2024/01/29 02:14:08;;;;;;;415.88;223.43;;;;;;;-148.24;100.00;61531.34;4915595;29;20041;-62
2024/01/29 02:16:33;;;;;;;410.40;216.82;;;;;;;-148.24;100.00;61531.34;4917945;29;20032;-61
2024/01/29 02:18:59;;;;;;;387.02;218.20;;;;;;;-148.24;100.00;61531.34;4916080;29;20115;-61
2024/01/29 02:21:24;;;;;;;480.10;227.48;;;;;;;-148.24;100.00;61531.34;4916645;28;20420;-62
2024/01/29 02:23:50;;;;;;;412.33;217.77;;;;;;;-148.24;100.00;61531.34;4915746;29;20031;-61
2024/01/29 02:26:15;;;;;;;484.42;221.25;;;;;;;-148.24;100.00;61531.34;4915642;28;20102;-62
2024/01/29 02:28:40;;;;;;;408.63;223.15;;;;;;;-148.24;100.00;61531.34;4914270;29;20036;-61
2024/01/29 02:31:06;;;;;;;396.20;231.60;;;;;;;-148.24;100.00;61531.34;4913496;28;20039;-63
2024/01/29 02:33:31;;;;;;;362.83;230.15;;;;;;;-148.24;100.00;61531.34;4913729;29;20031;-61
2024/01/29 02:35:57;;;;;;;402.88;233.00;;;;;;;-148.24;100.00;61531.34;4912356;28;20040;-62
2024/01/29 02:38:22;;;;;;;527.70;248.27;;;;;;;-148.24;100.00;61531.34;4905470;29;20020;-61
2024/01/29 02:40:48;;;;;;;411.20;238.05;;;;;;;-148.24;100.00;61531.34;4910016;28;20040;-61
2024/01/29 02:43:13;;;;;;;481.33;240.07;;;;;;;-148.24;100.00;61531.34;4911744;29;20178;-62
2024/01/29 02:45:39;;;;;;;392.00;225.40;;;;;;;-148.24;100.00;61531.34;4916811;28;20368;-61
2024/01/29 02:48:05;;;;;;;380.45;230.13;;;;;;;-148.24;100.00;61531.34;4920607;29;20515;-63
2024/01/29 02:50:30;;;;;;;408.38;235.45;;;;;;;-148.24;100.00;61531.34;4912713;28;20099;-61
2024/01/29 02:52:57;;;;;;;367.63;254.00;;;;;;;-148.24;100.00;61531.34;4908420;29;20050;-61
2024/01/29 02:55:22;;;;;;;515.55;246.57;;;;;;;-148.24;100.00;61531.34;4908363;29;20036;-64
2024/01/29 02:57:47;;;;;;;429.65;238.98;;;;;;;-148.24;100.00;61531.34;4914606;29;20477;-61
2024/01/29 03:00:13;;;;;;;452.70;242.30;;;;;;;-148.24;100.00;61531.34;4914099;29;20035;-62
2024/01/29 03:02:38;;;;;;;399.95;237.13;;;;;;;-148.24;100.00;61531.34;4913870;29;20735;-59
2024/01/29 03:05:04;;;;;;;422.90;236.70;;;;;;;-148.24;100.00;61531.34;4914710;29;20027;-61
2024/01/29 03:07:29;;;;;;;361.63;236.25;;;;;;;-148.24;100.00;61531.34;4916156;28;20035;-60
2024/01/29 03:09:55;;;;;;;403.83;238.73;;;;;;;-148.24;100.00;61531.34;4917855;29;20032;-59
2024/01/29 03:12:20;;;;;;;520.28;246.38;;;;;;;-148.24;100.00;61531.34;4913842;28;20042;-61
2024/01/29 03:14:46;;;;;;;380.48;238.63;;;;;;;-148.24;100.00;61531.34;4912864;28;20159;-62
2024/01/29 03:17:11;;;;;;;384.27;239.98;;;;;;;-148.24;100.00;61531.34;4912094;28;20123;-59
2024/01/29 03:19:36;;;;;;;449.75;245.80;;;;;;;-148.24;100.00;61531.34;4911637;29;20039;-59
2024/01/29 03:22:02;;;;;;;395.42;242.93;;;;;;;-148.24;100.00;61531.34;4918739;29;20044;-62
2024/01/29 03:24:27;;;;;;;517.83;252.57;;;;;;;-148.24;100.00;61531.34;4919343;29;20554;-62
2024/01/29 03:26:53;;;;;;;453.88;250.48;;;;;;;-148.24;100.00;61531.34;4919569;28;20090;-62
2024/01/29 03:29:18;;;;;;;521.30;248.15;;;;;;;-148.24;100.00;61531.34;4921712;29;20023;-62
2024/01/29 03:31:43;;;;;;;417.15;249.77;;;;;;;-148.24;100.00;61531.34;4919455;28;20035;-64
2024/01/29 03:34:09;;;;;;;439.58;247.63;;;;;;;-148.24;100.00;61531.34;4917776;29;20376;-63
2024/01/29 03:36:34;;;;;;;418.88;255.18;;;;;;;-148.24;100.00;61531.34;4919833;29;20094;-60
2024/01/29 03:38:59;;;;;;;410.08;255.40;;;;;;;-148.24;100.00;61531.34;4921798;29;20047;-60
2024/01/29 03:41:24;;;;;;;497.95;249.80;;;;;;;-148.24;100.00;61531.34;4916998;28;20262;-60
2024/01/29 03:43:50;;;;;;;460.98;250.57;;;;;;;-148.24;100.00;61531.34;4918685;29;20070;-59
2024/01/29 03:46:15;;;;;;;498.15;260.17;;;;;;;-148.24;100.00;61531.34;4917760;28;20119;-60
2024/01/29 03:48:41;;;;;;;443.95;245.95;;;;;;;-148.24;100.00;61531.34;4917481;29;20484;-59
2024/01/29 03:51:06;;;;;;;401.10;250.00;;;;;;;-148.24;100.00;61531.34;4921337;29;20447;-60
2024/01/29 03:53:31;;;;;;;407.17;236.43;;;;;;;-148.24;100.00;61531.34;4918483;29;21421;-60
2024/01/29 03:55:57;;;;;;;460.00;237.82;;;;;;;-148.24;100.00;61531.34;4915786;29;20134;-59
2024/01/29 03:58:22;;;;;;;514.25;251.18;;;;;;;-148.24;100.00;61531.34;4914523;29;20058;-59
2024/01/29 04:00:47;;;;;;;425.42;249.05;;;;;;;-148.24;100.00;61531.34;4919626;29;20135;-63
2024/01/29 04:03:13;;;;;;;461.45;234.35;;;;;;;-148.24;100.00;61531.34;4913365;28;20034;-59
2024/01/29 04:05:38;;;;;;;425.40;221.15;;;;;;;-148.24;100.00;61531.34;4915986;28;20074;-63
2024/01/29 04:08:04;;;;;;;360.40;224.77;;;;;;;-148.24;100.00;61531.34;4924054;29;20035;-63
2024/01/29 04:10:29;;;;;;;584.35;228.95;;;;;;;-148.24;100.00;61531.34;4915275;28;20119;-63
2024/01/29 04:12:55;;;;;;;380.40;213.02;;;;;;;-148.24;100.00;61531.34;4918874;29;20042;-60
2024/01/29 04:15:20;;;;;;;479.02;224.25;;;;;;;-148.24;100.00;61531.34;4919049;29;20050;-60
2024/01/29 04:17:45;;;;;;;474.25;222.95;;;;;;;-148.24;100.00;61531.34;4918212;29;20035;-61
2024/01/29 04:20:11;;;;;;;384.38;216.52;;;;;;;-148.24;100.00;61531.34;4915321;28;20016;-61
2024/01/29 04:22:36;;;;;;;408.25;226.70;;;;;;;-148.24;100.00;61531.34;4914295;29;20023;-62
2024/01/29 04:25:04;;;;;;;420.45;232.05;;;;;;;-148.24;100.00;61531.34;4919507;28;20407;-61
2024/01/29 04:27:30;;;;;;;524.60;243.70;;;;;;;-148.24;100.00;61531.34;4917899;29;20046;-62
2024/01/29 04:29:55;;;;;;;417.40;239.38;;;;;;;-148.24;100.00;61531.34;4918992;29;20020;-61
2024/01/29 04:32:20;;;;;;;556.88;243.88;;;;;;;-148.24;100.00;61531.34;4918296;29;20035;-61
2024/01/29 04:34:46;;;;;;;372.27;234.80;;;;;;;-148.24;100.00;61531.34;4916474;29;20024;-61
2024/01/29 04:37:11;;;;;;;416.77;240.40;;;;;;;-148.24;100.00;61531.34;4911916;28;20488;-60
2024/01/29 04:39:38;;;;;;;478.70;243.90;;;;;;;-148.24;100.00;61531.34;4907413;29;20416;-61
2024/01/29 04:42:03;;;;;;;360.17;238.95;;;;;;;-148.24;100.00;61531.34;4919612;29;20043;-60
2024/01/29 04:44:29;;;;;;;477.80;240.52;;;;;;;-148.24;100.00;61531.34;4918991;29;20070;-60
2024/01/29 04:46:54;;;;;;;400.08;238.95;;;;;;;-148.24;100.00;61531.34;4919832;29;20102;-60
2024/01/29 04:49:19;;;;;;;475.05;243.25;;;;;;;-148.24;100.00;61531.34;4917137;29;20020;-60
2024/01/29 04:51:45;;;;;;;410.65;242.27;;;;;;;-148.24;100.00;61531.34;4912605;28;20382;-61
2024/01/29 04:54:10;;;;;;;422.02;242.75;;;;;;;-148.24;100.00;61531.34;4925507;29;20030;-62
2024/01/29 04:56:35;;;;;;;434.23;245.70;;;;;;;-148.24;100.00;61531.34;4916299;28;21206;-60
2024/01/29 04:59:01;;;;;;;422.08;243.65;;;;;;;-148.24;100.00;61531.34;4916550;29;20017;-60
2024/01/29 05:01:26;;;;;;;545.08;254.15;;;;;;;-148.24;100.00;61531.34;4917614;28;20321;-60
2024/01/29 05:03:53;;;;;;;399.55;232.50;;;;;;;-148.24;100.00;61531.34;4918463;29;20028;-59
2024/01/29 05:06:19;;;;;;;377.48;239.75;;;;;;;-148.24;100.00;61531.34;4920057;28;20039;-60
2024/01/29 05:08:44;;;;;;;422.63;247.10;;;;;;;-148.24;100.00;61531.34;4917256;29;20384;-61
2024/01/29 05:11:09;;;;;;;417.90;248.60;;;;;;;-148.24;100.00;61531.34;4916876;28;20040;-63
2024/01/29 05:13:35;;;;;;;535.70;259.55;;;;;;;-148.24;100.00;61531.34;4918067;29;20122;-62
2024/01/29 05:16:00;;;;;;;436.77;249.90;;;;;;;-148.24;100.00;61531.34;4919315;28;20123;-61
2024/01/29 05:18:25;;;;;;;505.90;255.85;;;;;;;-148.24;100.00;61531.34;4916919;29;20031;-60
2024/01/29 05:20:51;;;;;;;432.67;255.52;;;;;;;-148.24;100.00;61531.34;4918367;29;20163;-60
2024/01/29 05:23:16;;;;;;;392.45;236.55;;;;;;;-148.24;100.00;61531.34;4919100;28;20029;-62
2024/01/29 05:25:43;;;;;;;427.27;244.10;;;;;;;-148.24;100.00;61531.34;4915257;28;20541;-61
2024/01/29 05:28:09;;;;;;;435.35;245.68;;;;;;;-148.24;100.00;61531.34;4920076;29;20027;-61
2024/01/29 05:30:34;;;;;;;550.85;252.48;;;;;;;-148.24;100.00;61531.34;4915929;29;20205;-61
2024/01/29 05:32:59;;;;;;;381.60;234.20;;;;;;;-148.24;100.00;61531.34;4915925;29;20160;-62
2024/01/29 05:35:25;;;;;;;532.92;249.60;;;;;;;-148.24;100.00;61531.34;4913921;29;20853;-61
2024/01/29 05:37:50;;;;;;;394.27;241.77;;;;;;;-148.24;100.00;61531.34;4916645;29;20058;-61
2024/01/29 05:40:15;;;;;;;415.67;245.52;;;;;;;-148.24;100.00;61531.34;4914937;29;20236;-60
2024/01/29 05:42:42;;;;;;;432.85;246.02;;;;;;;-148.24;100.00;61531.34;4917756;29;20028;-61
2024/01/29 05:45:07;;;;;;;440.25;245.63;;;;;;;-148.24;100.00;61531.34;4918343;29;20528;-60
2024/01/29 05:47:33;;;;;;;520.95;245.48;;;;;;;-148.24;100.00;61531.34;4916566;29;20050;-60
2024/01/29 05:49:59;;;;;;;450.60;249.10;;;;;;;-148.24;100.00;61531.34;4915636;29;20528;-60
2024/01/29 05:52:24;;;;;;;506.77;255.98;;;;;;;-148.24;100.00;61531.34;4917828;28;20035;-60
2024/01/29 05:54:50;;;;;;;413.92;247.70;;;;;;;-148.24;100.00;61531.34;4916170;29;20040;-61
2024/01/29 05:57:17;;;;;;;416.20;237.98;;;;;;;-148.24;100.00;61531.34;4915334;28;20047;-61
2024/01/29 05:59:42;;;;;;;368.70;238.85;;;;;;;-148.24;100.00;61531.34;4913988;29;20326;-60
2024/01/29 06:02:08;;;;;;;362.20;244.05;;;;;;;-148.24;100.00;61531.34;4914668;29;20143;-60
2024/01/29 06:04:33;;;;;;;549.60;244.38;;;;;;;-148.24;100.00;61531.34;4914860;29;20019;-61
2024/01/29 06:06:59;;;;;;;375.60;234.07;;;;;;;-148.24;100.00;61531.34;4917233;28;20582;-63
2024/01/29 06:09:25;;;;;;;476.40;238.93;;;;;;;-148.24;100.00;61531.34;4915754;29;20644;-61
2024/01/29 06:11:50;;;;;;;445.58;237.63;;;;;;;-148.24;100.00;61531.34;4916059;28;20082;-60
2024/01/29 06:14:16;;;;;;;381.38;234.77;;;;;;;-148.24;100.00;61531.34;4917887;28;20024;-62
2024/01/29 06:16:45;;;;;;;404.55;238.32;;;;;;;-148.24;100.00;61531.34;4908436;28;20408;-62
2024/01/29 06:19:15;;;;;;;457.88;240.15;;;;;;;-148.24;100.00;61531.34;4908340;29;20578;-59
2024/01/29 06:21:42;;;;;;;521.38;244.52;;;;;;;-148.24;100.00;61531.34;4911706;29;20079;-61
2024/01/29 06:24:07;;;;;;;401.70;247.57;;;;;;;-148.24;100.00;61531.34;4914800;29;20102;-63
2024/01/29 06:26:33;;;;;;;507.60;249.85;;;;;;;-148.24;100.00;61531.34;4914157;28;20123;-63
2024/01/29 06:28:58;;;;;;;361.13;216.85;;;;;;;-148.24;100.00;61531.34;4914090;29;20259;-63
2024/01/29 06:31:24;;;;;;;413.38;210.77;;;;;;;-148.24;100.00;61531.34;4914433;28;20130;-63
2024/01/29 06:33:52;;;;;;;435.10;212.52;;;;;;;-148.24;100.00;61531.34;4916872;29;20031;-61
2024/01/29 06:36:18;;;;;;;317.85;200.40;;;;;;;-148.24;100.00;61531.34;4914155;28;20039;-64
2024/01/29 06:38:43;;;;;;;335.92;199.75;;;;;;;-148.24;100.00;61531.34;4911544;29;20195;-61
2024/01/29 06:41:18;;;;;;;394.55;207.48;;;;;;;-148.24;100.00;61531.34;4913922;28;20621;-60
2024/01/29 06:43:44;;;;;;;370.48;207.70;;;;;;;-148.24;100.00;61531.34;4914764;29;20023;-64
2024/01/29 06:46:10;;;;;;;406.67;231.75;;;;;;;-148.24;100.00;61531.34;4915523;28;20281;-63
2024/01/29 06:48:37;;;;;;;483.95;217.38;;;;;;;-148.24;100.00;61531.34;4918871;29;20126;-62
2024/01/29 06:51:03;;;;;;;444.55;214.13;;;;;;;-148.24;100.00;61531.34;4916072;29;20236;-63
2024/01/29 06:54:39;;;;;;;559.53;203.43;;;;;;;-3.70;100.00;99382.81;5052058;27;20862;-62
2024/01/29 06:57:04;;;;;;;347.75;195.00;;;;;;;-3.73;100.00;99382.56;5044715;28;20531;-62
2024/01/29 06:59:29;;;;;;;516.13;199.30;;;;;;;-3.66;100.00;99380.63;5041251;28;20025;-61
2024/01/29 07:01:59;;;;;;;393.42;197.20;;;;;;;-3.53;100.00;99389.16;5042454;28;20392;-65
2024/01/29 07:04:24;;;;;;;359.40;191.80;;;;;;;-3.47;100.00;99387.09;5043123;28;20480;-64
2024/01/29 07:06:49;;;;;;;349.45;190.25;;;;;;;-3.38;100.00;99391.09;5039734;28;20611;-63
2024/01/29 07:09:15;;;;;;;388.58;193.13;;;;;;;-3.27;100.00;99382.59;5042688;28;20487;-63
2024/01/29 07:11:40;;;;;;;485.35;203.35;;;;;;;-3.16;100.00;99379.19;5041259;28;20052;-64
2024/01/29 07:14:06;;;;;;;391.77;204.75;;;;;;;-3.03;100.00;99391.19;5042601;28;20009;-64
2024/01/29 07:16:31;;;;;;;530.55;212.48;;;;;;;-2.98;100.00;99394.03;5040676;28;20049;-63
2024/01/29 07:18:56;;;;;;;364.48;206.35;;;;;;;-2.81;100.00;99394.38;5042124;28;20039;-64
2024/01/29 07:21:21;;;;;;;357.83;204.57;;;;;;;-2.69;100.00;99394.38;5041243;28;20037;-62
2024/01/29 07:23:47;;;;;;;422.30;210.50;;;;;;;-2.73;100.00;99394.94;5039672;28;20031;-62
2024/01/29 07:26:13;;;;;;;365.42;211.70;;;;;;;-2.57;100.00;99400.34;5042451;28;20098;-63
2024/01/29 07:28:38;;;;;;;448.60;213.05;;;;;;;-1.39;100.00;99399.03;5039120;28;20029;-65
2024/01/29 07:31:03;;;;;;;390.05;209.32;;;;;;;0.10;100.00;99398.25;5038966;28;20029;-63
2024/01/29 07:33:29;;;;;;;436.35;218.95;;;;;;;1.62;100.00;99391.50;5036842;28;20368;-62
2024/01/29 07:35:54;;;;;;;376.80;218.88;;;;;;;3.87;100.00;99385.59;5040090;28;20720;-62
2024/01/29 07:38:20;;;;;;;417.50;218.45;;;;;;;5.89;100.00;99379.31;5042533;28;20592;-64
2024/01/29 07:40:45;;;;;;;473.60;225.32;;;;;;;7.10;100.00;99373.28;5038050;28;20041;-62
2024/01/29 07:43:10;;;;;;;415.60;222.27;;;;;;;8.16;100.00;99367.81;5042034;28;20021;-65
2024/01/29 07:45:36;;;;;;;580.97;234.95;;;;;;;7.69;100.00;99374.25;5039194;28;20233;-62
2024/01/29 07:48:04;;;;;;;474.10;231.48;;;;;;;9.42;100.00;99365.91;5041414;28;20023;-64
2024/01/29 07:50:30;;;;;;;489.48;226.10;;;;;;;10.36;100.00;99368.75;5038829;28;20049;-64
2024/01/29 07:52:55;;;;;;;480.42;222.98;;;;;;;10.73;100.00;99368.63;5040233;28;20056;-64
2024/01/29 07:55:22;;;;;;;492.48;216.65;;;;;;;11.92;89.86;99367.88;5040361;28;20029;-63
2024/01/29 07:57:47;;;;;;;489.92;216.27;;;;;;;12.54;79.21;99366.03;5037776;28;21761;-61
2024/01/29 08:00:13;;;;;;;504.05;213.52;;;;;;;13.13;69.62;99363.97;5041163;28;20104;-61
2024/01/29 08:02:38;;;;;;;643.60;217.63;;;;;;;11.07;65.60;99373.56;5039527;28;20151;-60
2024/01/29 08:05:04;;;;;;;502.85;209.23;;;;;;;8.65;70.36;99378.69;5032192;28;20033;-60
2024/01/29 08:07:29;;;;;;;494.08;209.70;;;;;;;6.51;80.87;99379.03;5024035;28;20110;-62
2024/01/29 08:09:55;;;;;;;555.33;207.38;;;;;;;4.60;89.52;99388.81;5035107;28;20014;-62
2024/01/29 08:12:20;;;;;;;494.05;205.20;;;;;;;4.91;96.81;99384.97;5027458;28;20205;-62
2024/01/29 08:14:47;;;;;;;662.75;220.15;;;;;;;4.01;100.00;99383.66;5026777;28;20397;-64
2024/01/29 08:17:13;;;;;;;518.33;213.07;;;;;;;3.47;100.00;99385.50;5026212;28;20037;-64
2024/01/29 08:19:38;;;;;;;603.35;216.95;;;;;;;3.01;100.00;99390.97;5026219;28;20057;-65
2024/01/29 08:22:03;;;;;;;479.08;214.07;;;;;;;3.61;100.00;99382.69;5025334;28;20372;-63
2024/01/29 08:24:29;;;;;;;535.40;214.73;;;;;;;3.12;100.00;99385.53;5026452;28;20482;-64
2024/01/29 08:26:54;;;;;;;484.13;211.25;;;;;;;3.01;100.00;99383.25;5025618;28;20033;-64
2024/01/29 08:29:20;;;;;;;490.45;214.02;;;;;;;3.20;100.00;99391.06;5027009;28;20784;-64
2024/01/29 08:31:45;;;;;;;603.00;219.57;;;;;;;2.92;100.00;99391.38;5025028;28;20065;-64
2024/01/29 08:34:11;;;;;;;477.05;214.23;;;;;;;3.07;100.00;99389.59;5026956;28;20033;-62
2024/01/29 08:36:36;;;;;;;580.38;223.82;;;;;;;3.29;100.00;99393.22;5023990;28;20064;-61
2024/01/29 08:39:02;;;;;;;550.40;221.68;;;;;;;3.37;100.00;99388.44;5026078;28;20060;-64
2024/01/29 08:41:27;;;;;;;437.70;214.68;;;;;;;3.16;100.00;99394.31;5027173;28;20034;-63
2024/01/29 08:43:53;;;;;;;446.83;213.40;;;;;;;3.35;100.00;99383.19;5027297;28;20488;-61
2024/01/29 08:46:18;;;;;;;448.70;210.88;;;;;;;3.31;100.00;99393.28;5025010;28;20063;-63
2024/01/29 08:48:44;;;;;;;566.33;223.82;;;;;;;3.66;100.00;99378.66;5023795;28;20404;-61
2024/01/29 08:51:09;;;;;;;433.02;214.15;;;;;;;3.58;100.00;99390.25;5027765;28;20049;-63
2024/01/29 08:53:36;;;;;;;567.22;222.02;;;;;;;3.81;100.00;99387.88;5025586;28;20501;-62
2024/01/29 08:56:05;;;;;;;415.52;213.20;;;;;;;3.83;100.00;99394.00;5027046;28;20416;-62
2024/01/29 08:58:32;;;;;;;460.83;216.80;;;;;;;4.23;100.00;99395.81;5027735;28;20036;-63
2024/01/29 09:00:58;;;;;;;464.52;215.75;;;;;;;4.22;100.00;99388.91;5026403;28;20034;-61
2024/01/29 09:03:24;;;;;;;417.42;212.27;;;;;;;4.49;100.00;99405.53;5027187;28;20024;-61
2024/01/29 09:05:50;;;;;;;495.98;216.30;;;;;;;4.53;100.00;99403.13;5028380;28;20037;-62
2024/01/29 09:08:15;;;;;;;442.02;216.07;;;;;;;4.72;100.00;99400.47;5030235;28;20051;-63
2024/01/29 09:10:41;;;;;;;514.95;218.82;;;;;;;4.58;100.00;99400.75;5028434;28;20073;-60
2024/01/29 09:13:07;;;;;;;408.40;214.00;;;;;;;4.76;100.00;99392.94;5031917;28;20021;-62
2024/01/29 09:15:32;;;;;;;468.65;217.10;;;;;;;5.04;100.00;99401.84;5029421;28;20089;-62
2024/01/29 09:17:57;;;;;;;407.15;212.35;;;;;;;4.97;100.00;99396.38;5028418;28;20021;-64
2024/01/29 09:20:23;;;;;;;431.85;213.95;;;;;;;5.03;100.00;99402.66;5028060;28;20094;-63
2024/01/29 09:22:48;;;;;;;561.50;217.85;;;;;;;4.89;100.00;99406.34;5027453;28;20063;-63
2024/01/29 09:25:14;;;;;;;434.38;211.82;;;;;;;5.07;100.00;99403.66;5029331;28;20057;-64
2024/01/29 09:27:40;;;;;;;558.58;220.07;;;;;;;5.17;100.00;99408.41;5030237;28;20395;-64
2024/01/29 09:30:06;;;;;;;450.73;214.90;;;;;;;5.41;100.00;99405.03;5031699;28;20425;-65
2024/01/29 09:32:31;;;;;;;447.60;213.52;;;;;;;5.45;100.00;99400.88;5029863;28;20035;-64
2024/01/29 09:34:56;;;;;;;410.95;196.45;;;;;;;5.47;100.00;99404.41;5027888;28;20028;-66
2024/01/29 09:37:22;;;;;;;386.77;188.95;;;;;;;5.71;100.00;99404.50;5031585;28;20116;-64
2024/01/29 09:39:47;;;;;;;567.65;202.05;;;;;;;5.90;100.00;99404.34;5028580;28;20037;-61
2024/01/29 09:42:18;;;;;;;405.42;201.30;;;;;;;5.77;100.00;99409.03;5029275;28;20029;-66
2024/01/29 09:44:45;;;;;;;589.42;211.15;;;;;;;5.94;100.00;99417.41;5028327;28;20032;-62
2024/01/29 09:47:12;;;;;;;430.58;204.35;;;;;;;6.05;100.00;99414.41;5031879;28;20404;-64
2024/01/29 09:49:37;;;;;;;473.73;206.40;;;;;;;6.08;99.51;99415.38;5025523;28;20053;-59
2024/01/29 09:52:04;;;;;;;473.15;206.77;;;;;;;5.90;98.36;99409.50;5031785;28;20041;-62
2024/01/29 09:54:30;;;;;;;433.85;206.73;;;;;;;6.22;96.25;99407.28;5029928;28;20045;-61
2024/01/29 09:56:55;;;;;;;428.40;204.68;;;;;;;6.43;93.76;99396.84;5028487;28;20071;-63
2024/01/29 09:59:22;;;;;;;460.92;189.25;;;;;;;6.47;89.94;99405.59;5030132;28;20437;-63
2024/01/29 10:01:48;;;;;;;503.90;199.20;;;;;;;5.84;93.45;99405.88;5026601;28;20076;-62
2024/01/29 10:04:13;;;;;;;403.92;194.55;;;;;;;5.59;93.89;99404.91;5028469;28;20017;-63
2024/01/29 10:06:39;;;;;;;537.55;209.90;;;;;;;5.71;98.84;99403.59;5026875;28;20116;-61
2024/01/29 10:09:04;;;;;;;460.35;238.55;;;;;;;5.76;100.00;99407.28;5028815;28;20553;-61
2024/01/29 10:11:30;;;;;;;487.42;264.88;;;;;;;6.04;99.17;99408.34;5029886;28;20086;-61
2024/01/29 10:13:59;;;;;;;528.70;274.33;;;;;;;6.01;100.00;99400.44;5025737;28;20041;-61
2024/01/29 10:16:26;;;;;;;482.60;283.27;;;;;;;6.28;99.70;99402.34;5027451;28;20033;-61
2024/01/29 10:19:01;;;;;;;594.35;258.98;;;;;;;6.67;89.32;99395.06;5028128;28;20484;-62
2024/01/29 10:21:27;;;;;;;474.90;249.90;;;;;;;6.99;83.58;99392.72;5027600;28;20560;-62
2024/01/29 10:23:56;;;;;;;619.58;271.25;;;;;;;7.07;80.15;99393.88;5026822;28;20041;-62
2024/01/29 10:26:23;;;;;;;508.63;262.02;;;;;;;7.08;77.23;99397.31;5028264;28;20053;-60
2024/01/29 10:29:02;;;;;;;573.67;269.80;;;;;;;7.11;76.08;99395.72;5028191;28;20025;-62
2024/01/29 10:31:28;;;;;;;524.08;258.65;;;;;;;7.53;75.46;99396.16;5028282;28;20029;-62
2024/01/29 10:33:54;;;;;;;634.28;266.58;;;;;;;7.86;72.69;99395.47;5027355;28;20439;-64
2024/01/29 10:36:21;;;;;;;472.98;251.93;;;;;;;8.16;70.55;99402.41;5027635;28;20040;-63
2024/01/29 10:38:47;;;;;;;676.25;274.08;;;;;;;8.26;68.89;99400.06;5028050;28;20029;-61
2024/01/29 10:41:16;;;;;;;495.20;250.80;;;;;;;8.02;67.23;99388.16;5026966;28;20504;-63